TimeEDT,TemperatureF,Dew PointF,Humidity,Sea Level PressureIn,VisibilityMPH,Wind Direction,Wind SpeedMPH,Gust SpeedMPH,PrecipitationIn,Events,Conditions,WindDirDegrees,DateUTC
12:05 AM,55.8,52.0,87,30.18,10.0,Calm,Calm,-,N/A,,Clear,0,2013-08-18 04:05:00
12:36 AM,60.1,52.0,75,30.18,10.0,SW,4.6,-,N/A,,Clear,220,2013-08-18 04:36:00
12:55 AM,59.9,51.3,73,30.18,10.0,SW,3.5,-,N/A,,Clear,220,2013-08-18 04:55:00
1:16 AM,54.5,50.2,85,30.18,10.0,Calm,Calm,-,N/A,,Clear,0,2013-08-18 05:16:00
1:35 AM,54.9,50.0,84,30.18,10.0,Calm,Calm,-,N/A,,Clear,0,2013-08-18 05:35:00
1:56 AM,55.8,50.9,84,30.18,10.0,South,4.6,-,N/A,,Clear,190,2013-08-18 05:56:00
2:16 AM,56.5,51.6,84,30.18,10.0,South,4.6,-,N/A,,Clear,190,2013-08-18 06:16:00
2:35 AM,56.5,51.6,84,30.18,10.0,SSW,3.5,-,N/A,,Clear,210,2013-08-18 06:35:00
2:56 AM,55.8,51.1,84,30.18,10.0,South,3.5,-,N/A,,Clear,190,2013-08-18 06:56:00
3:16 AM,56.7,51.3,82,30.18,10.0,Calm,Calm,-,N/A,,Clear,0,2013-08-18 07:16:00
3:35 AM,55.6,50.5,83,30.18,10.0,SSW,3.5,-,N/A,,Clear,210,2013-08-18 07:35:00
3:56 AM,52.5,48.4,86,30.19,10.0,Calm,Calm,-,N/A,,Clear,0,2013-08-18 07:56:00
4:15 AM,52.3,49.6,91,30.19,10.0,Calm,Calm,-,N/A,,Clear,0,2013-08-18 08:15:00
4:36 AM,51.4,48.4,89,30.19,10.0,Calm,Calm,-,N/A,,Clear,0,2013-08-18 08:36:00
4:56 AM,50.7,48.0,90,30.19,10.0,Calm,Calm,-,N/A,,Clear,0,2013-08-18 08:56:00
5:15 AM,50.9,48.0,90,30.19,10.0,Calm,Calm,-,N/A,,Clear,0,2013-08-18 09:15:00
5:36 AM,50.7,48.2,91,30.19,10.0,Calm,Calm,-,N/A,,Clear,0,2013-08-18 09:36:00
5:55 AM,48.6,45.7,90,30.19,10.0,Calm,Calm,-,N/A,,Clear,0,2013-08-18 09:55:00
6:16 AM,50.4,48.4,93,30.19,10.0,Calm,Calm,-,N/A,,Clear,0,2013-08-18 10:16:00
6:36 AM,52.2,48.9,89,30.19,10.0,SSW,3.5,-,N/A,,Clear,200,2013-08-18 10:36:00
6:56 AM,53.8,49.3,85,30.19,10.0,SSW,3.5,-,N/A,,Clear,200,2013-08-18 10:56:00
7:16 AM,56.1,49.5,78,30.19,10.0,SSW,3.5,-,N/A,,Clear,200,2013-08-18 11:16:00
7:35 AM,57.9,50.4,76,30.20,10.0,Calm,Calm,-,N/A,,Clear,0,2013-08-18 11:35:00
7:56 AM,59.0,53.8,83,30.20,10.0,Calm,Calm,-,N/A,,Clear,0,2013-08-18 11:56:00
8:16 AM,61.2,54.9,80,30.21,10.0,Calm,Calm,-,N/A,,Clear,0,2013-08-18 12:16:00
8:36 AM,64.0,54.7,72,30.21,10.0,Calm,Calm,-,N/A,,Clear,0,2013-08-18 12:36:00
8:55 AM,67.3,52.2,58,30.21,10.0,Calm,Calm,-,N/A,,Clear,0,2013-08-18 12:55:00
9:15 AM,68.9,51.4,54,30.21,10.0,SW,5.8,-,N/A,,Clear,220,2013-08-18 13:15:00
9:36 AM,71.1,52.0,51,30.21,10.0,SW,6.9,-,N/A,,Clear,230,2013-08-18 13:36:00
9:55 AM,72.7,50.5,46,30.20,10.0,SW,8.1,-,N/A,,Clear,230,2013-08-18 13:55:00
10:16 AM,74.5,50.7,43,30.20,10.0,SW,8.1,-,N/A,,Clear,220,2013-08-18 14:16:00
10:35 AM,75.9,49.6,40,30.20,10.0,SW,8.1,-,N/A,,Clear,230,2013-08-18 14:35:00
10:56 AM,77.0,49.3,38,30.20,10.0,WSW,10.4,-,N/A,,Clear,240,2013-08-18 14:56:00
11:16 AM,78.1,50.4,38,30.19,10.0,WSW,9.2,-,N/A,,Clear,240,2013-08-18 15:16:00
11:35 AM,79.5,51.4,37,30.19,10.0,West,9.2,17.3,N/A,,Clear,260,2013-08-18 15:35:00
11:56 AM,80.1,51.3,37,30.18,10.0,WSW,8.1,18.4,N/A,,Clear,240,2013-08-18 15:56:00
12:15 PM,80.2,50.2,35,30.18,10.0,WSW,9.2,-,N/A,,Clear,240,2013-08-18 16:15:00
12:36 PM,81.5,49.6,33,30.17,10.0,WSW,10.4,16.1,N/A,,Clear,250,2013-08-18 16:36:00
12:55 PM,81.9,48.9,32,30.17,10.0,West,9.2,-,N/A,,Clear,260,2013-08-18 16:55:00
1:16 PM,82.2,49.5,32,30.16,10.0,WSW,6.9,-,N/A,,Clear,250,2013-08-18 17:16:00
1:36 PM,81.9,48.4,31,30.16,10.0,West,6.9,-,N/A,,Clear,260,2013-08-18 17:36:00
1:55 PM,83.5,48.4,29,30.15,10.0,SW,10.4,-,N/A,,Clear,230,2013-08-18 17:55:00
2:16 PM,82.6,45.0,27,30.15,10.0,WSW,11.5,-,N/A,,Clear,250,2013-08-18 18:16:00
2:35 PM,83.1,45.7,27,30.14,7.0,WSW,9.2,-,N/A,,Clear,250,2013-08-18 18:35:00
2:56 PM,83.7,45.7,26,30.14,10.0,WSW,9.2,16.1,N/A,,Clear,240,2013-08-18 18:56:00
3:16 PM,83.3,47.1,28,30.13,10.0,West,3.5,-,N/A,,Clear,270,2013-08-18 19:16:00
3:35 PM,82.9,48.2,30,30.13,10.0,West,12.7,21.9,N/A,,Clear,270,2013-08-18 19:35:00
3:56 PM,83.1,47.7,29,30.13,10.0,SW,6.9,-,N/A,,Clear,230,2013-08-18 19:56:00
4:16 PM,82.9,48.0,29,30.12,10.0,West,9.2,-,N/A,,Clear,280,2013-08-18 20:16:00
4:35 PM,82.6,48.2,30,30.12,10.0,West,10.4,-,N/A,,Clear,280,2013-08-18 20:35:00
4:56 PM,82.6,47.5,29,30.11,10.0,West,9.2,-,N/A,,Clear,270,2013-08-18 20:56:00
5:15 PM,82.0,47.8,30,30.11,10.0,West,10.4,18.4,N/A,,Clear,280,2013-08-18 21:15:00
5:36 PM,81.7,47.3,30,30.11,10.0,WSW,6.9,16.1,N/A,,Clear,250,2013-08-18 21:36:00
5:56 PM,81.0,46.8,30,30.10,10.0,WNW,10.4,-,N/A,,Clear,290,2013-08-18 21:56:00
6:15 PM,80.4,48.7,33,30.10,10.0,West,10.4,-,N/A,,Clear,280,2013-08-18 22:15:00
6:36 PM,79.0,48.6,34,30.10,10.0,West,10.4,-,N/A,,Clear,280,2013-08-18 22:36:00
6:55 PM,77.5,48.9,36,30.10,10.0,West,8.1,-,N/A,,Clear,280,2013-08-18 22:55:00
7:15 PM,76.5,49.6,39,30.10,10.0,Calm,Calm,-,N/A,,Clear,0,2013-08-18 23:15:00
7:36 PM,76.1,46.9,36,30.10,10.0,Calm,Calm,-,N/A,,Clear,0,2013-08-18 23:36:00
7:55 PM,72.1,55.9,57,30.10,10.0,Calm,Calm,-,N/A,,Clear,0,2013-08-18 23:55:00
8:16 PM,71.8,49.1,45,30.10,10.0,SW,3.5,-,N/A,,Clear,230,2013-08-19 00:16:00
8:36 PM,70.3,49.1,47,30.10,10.0,WSW,4.6,-,N/A,,Clear,250,2013-08-19 00:36:00
8:55 PM,69.8,50.2,50,30.10,10.0,SSE,4.6,-,N/A,,Clear,160,2013-08-19 00:55:00
9:15 PM,66.0,52.7,62,30.09,10.0,SSE,3.5,-,N/A,,Clear,160,2013-08-19 01:15:00
9:36 PM,66.7,55.6,67,30.10,10.0,South,3.5,-,N/A,,Clear,180,2013-08-19 01:36:00
9:55 PM,64.4,53.6,68,30.09,10.0,Calm,Calm,-,N/A,,Clear,0,2013-08-19 01:55:00
10:16 PM,61.3,53.1,74,30.09,10.0,Calm,Calm,-,N/A,,Clear,0,2013-08-19 02:16:00
10:35 PM,61.7,52.5,72,30.09,10.0,SW,3.5,-,N/A,,Clear,220,2013-08-19 02:35:00
10:56 PM,62.6,53.2,71,30.09,10.0,Calm,Calm,-,N/A,,Clear,0,2013-08-19 02:56:00
11:16 PM,59.5,52.7,78,30.09,10.0,Calm,Calm,-,N/A,,Clear,0,2013-08-19 03:16:00
11:35 PM,58.1,52.9,83,30.08,10.0,Calm,Calm,-,N/A,,Clear,0,2013-08-19 03:35:00
11:55 PM,56.7,52.9,87,30.08,10.0,Calm,Calm,-,N/A,,Clear,0,2013-08-19 03:55:00